Time;durP1;ratioP1;P1;durP2;ratioP2;P2;SDS_P1;SDS_P2;PMS_P1;PMS_P2;Temp;Humidity;BMP_temperature;BMP_pressure;BME280_temperature;BME280_humidity;BME280_pressure;Samples;Min_cycle;Max_cycle;Signal;HPM_P1;HPM_P2
2022/11/10 00:00:46;;;;;;;17.45;3.83;;;;;;;12.02;100.00;101313.19;5042799;28;20052;-75
2022/11/10 00:03:12;;;;;;;9.55;2.47;;;;;;;11.97;100.00;101313.56;5046397;28;20060;-75
2022/11/10 00:05:39;;;;;;;11.50;3.20;;;;;;;11.94;100.00;101320.69;5033408;28;20059;-75
2022/11/10 00:08:08;;;;;;;11.30;3.58;;;;;;;11.86;100.00;101309.97;5037507;28;20044;-75
2022/11/10 00:10:56;;;;;;;7.50;1.45;;;;;;;11.86;100.00;101323.81;5044568;28;20083;-76
2022/11/10 00:13:24;;;;;;;10.25;2.75;;;;;;;11.84;100.00;101309.53;5043290;28;20053;-76
2022/11/10 00:18:36;;;;;;;5.95;1.77;;;;;;;11.87;100.00;101331.75;5045196;28;20059;-73
2022/11/10 00:21:04;;;;;;;8.70;2.45;;;;;;;11.82;100.00;101331.34;5037621;28;20048;-76
2022/11/10 00:23:31;;;;;;;9.32;2.35;;;;;;;11.79;100.00;101335.69;5044951;28;20054;-73
2022/11/10 00:25:58;;;;;;;13.07;5.07;;;;;;;11.87;100.00;101333.72;5037337;28;20055;-73
2022/11/10 00:28:25;;;;;;;15.73;4.10;;;;;;;11.86;100.00;101341.25;5043705;28;20832;-73
2022/11/10 00:30:51;;;;;;;16.52;3.72;;;;;;;11.76;100.00;101342.03;5031753;28;20515;-75
2022/11/10 00:33:18;;;;;;;17.35;3.63;;;;;;;11.82;100.00;101350.75;5039965;28;20481;-76
2022/11/10 00:35:44;;;;;;;11.32;2.85;;;;;;;11.74;100.00;101338.06;5043150;28;20135;-74
2022/11/10 00:38:11;;;;;;;16.83;3.97;;;;;;;11.75;100.00;101345.19;5041723;28;20587;-74
2022/11/10 00:40:37;;;;;;;17.45;3.67;;;;;;;11.65;100.00;101343.16;5044010;28;20905;-74
2022/11/10 00:43:04;;;;;;;12.82;4.68;;;;;;;11.66;100.00;101347.50;5040331;28;20063;-75
2022/11/10 00:45:31;;;;;;;17.95;4.85;;;;;;;11.67;100.00;101349.09;5044871;28;20896;-72
2022/11/10 00:47:57;;;;;;;9.75;4.68;;;;;;;11.65;100.00;101352.25;5046619;28;20152;-73
2022/11/10 00:50:24;;;;;;;12.00;3.50;;;;;;;11.60;100.00;101355.38;5033474;28;20044;-75
2022/11/10 00:52:50;;;;;;;20.73;5.03;;;;;;;11.61;100.00;101356.97;5045307;28;20049;-73
2022/11/10 00:55:17;;;;;;;18.42;4.30;;;;;;;11.60;100.00;101360.13;5034144;28;20048;-76
2022/11/10 00:57:43;;;;;;;17.30;4.22;;;;;;;11.53;100.00;101360.09;5043007;28;20416;-73
2022/11/10 01:00:10;;;;;;;18.33;5.22;;;;;;;11.56;100.00;101359.31;5045117;28;20041;-75
2022/11/10 01:02:37;;;;;;;11.07;3.35;;;;;;;11.47;100.00;101348.56;5038242;28;20048;-75
2022/11/10 01:05:04;;;;;;;19.65;4.70;;;;;;;11.52;100.00;101364.03;5047008;28;20057;-73
2022/11/10 01:07:31;;;;;;;9.52;2.78;;;;;;;11.43;100.00;101361.63;5045699;28;20057;-74
2022/11/10 01:09:57;;;;;;;4.82;2.42;;;;;;;11.42;100.00;101370.31;5046947;28;20052;-74
2022/11/10 01:12:28;;;;;;;3.22;1.67;;;;;;;11.45;100.00;101377.84;5047274;28;20059;-76
2022/11/10 01:14:56;;;;;;;14.43;2.00;;;;;;;11.41;100.00;101386.13;5039989;28;20052;-72
2022/11/10 01:17:22;;;;;;;5.75;1.90;;;;;;;11.43;100.00;101372.69;5038292;28;20048;-72
2022/11/10 01:19:49;;;;;;;7.57;2.70;;;;;;;11.32;100.00;101377.41;5037813;28;20063;-72
2022/11/10 01:22:15;;;;;;;18.77;5.20;;;;;;;11.50;100.00;101392.13;5040595;28;20052;-73
2022/11/10 01:24:42;;;;;;;11.35;3.25;;;;;;;11.42;100.00;101396.06;5043084;28;20052;-75
2022/11/10 01:27:08;;;;;;;9.70;2.22;;;;;;;11.45;100.00;101392.53;5049988;28;20056;-75
2022/11/10 01:29:35;;;;;;;17.65;5.32;;;;;;;11.53;100.00;101404.41;5049177;28;20052;-73
2022/11/10 01:32:01;;;;;;;3.67;1.42;;;;;;;11.42;100.00;101406.34;5042382;28;20052;-76
2022/11/10 01:34:28;;;;;;;11.68;3.63;;;;;;;11.45;100.00;101409.16;5046632;28;20049;-74
2022/11/10 01:36:54;;;;;;;12.52;4.10;;;;;;;11.45;100.00;101403.59;5049221;28;20056;-74
2022/11/10 01:39:21;;;;;;;5.35;1.85;;;;;;;11.43;100.00;101405.16;5042535;28;20060;-75
2022/11/10 01:41:47;;;;;;;17.00;4.97;;;;;;;11.46;100.00;101412.69;5049823;28;20049;-74
2022/11/10 01:44:20;;;;;;;17.85;5.13;;;;;;;11.46;100.00;101416.28;5047414;28;20893;-75
2022/11/10 01:46:47;;;;;;;8.57;2.53;;;;;;;11.43;100.00;101416.22;5045114;28;20080;-75
2022/11/10 01:49:16;;;;;;;22.33;4.95;;;;;;;11.50;100.00;101417.09;5047059;28;20060;-74
2022/11/10 01:52:01;;;;;;;17.38;5.43;;;;;;;11.44;100.00;101417.84;5045280;28;20044;-74
2022/11/10 01:54:35;;;;;;;14.02;2.25;;;;;;;11.40;100.00;101419.78;5041379;28;20118;-74
2022/11/10 01:57:04;;;;;;;14.88;4.25;;;;;;;11.42;100.00;101425.72;5045796;28;20064;-75
2022/11/10 01:59:36;;;;;;;18.70;4.18;;;;;;;11.43;100.00;101417.03;5041956;28;20048;-74
2022/11/10 02:02:15;;;;;;;13.50;4.60;;;;;;;11.44;100.00;101420.63;5059235;28;20051;-74
2022/11/10 02:04:42;;;;;;;1.55;1.30;;;;;;;11.37;100.00;101426.88;5057343;28;20041;-74
2022/11/10 02:07:10;;;;;;;4.95;2.05;;;;;;;11.35;100.00;101411.84;5050787;28;20045;-74
2022/11/10 02:09:40;;;;;;;5.95;2.17;;;;;;;11.32;100.00;101424.50;5049840;28;20601;-74
2022/11/10 02:12:09;;;;;;;6.80;2.17;;;;;;;11.35;100.00;101428.47;5049639;28;20052;-74
2022/11/10 02:14:36;;;;;;;7.68;2.40;;;;;;;11.34;100.00;101435.19;5065292;28;20106;-74
2022/11/10 02:17:03;;;;;;;14.15;4.35;;;;;;;11.39;100.00;101448.66;5068871;28;20405;-74
2022/11/10 02:19:38;;;;;;;17.17;3.55;;;;;;;11.36;100.00;101443.91;5069487;28;20432;-73
2022/11/10 02:22:04;;;;;;;14.75;2.50;;;;;;;11.28;100.00;101436.72;5069822;28;20052;-72
2022/11/10 02:24:31;;;;;;;17.85;3.53;;;;;;;11.33;100.00;101439.94;5065522;28;20091;-72
2022/11/10 02:26:57;;;;;;;21.60;4.35;;;;;;;11.36;100.00;101444.69;5054450;28;20745;-72
2022/11/10 02:29:24;;;;;;;9.48;2.10;;;;;;;11.32;100.00;101443.88;5068520;28;20053;-74
2022/11/10 02:31:51;;;;;;;12.93;3.38;;;;;;;11.39;100.00;101445.91;5069496;28;20056;-73
2022/11/10 02:34:17;;;;;;;12.02;3.08;;;;;;;11.34;100.00;101437.97;5054031;28;20053;-73
2022/11/10 02:36:44;;;;;;;10.60;3.67;;;;;;;11.31;100.00;101441.50;5064854;28;20052;-72
2022/11/10 02:39:13;;;;;;;6.15;2.20;;;;;;;11.29;100.00;101458.50;5069415;28;20056;-74
2022/11/10 02:41:44;;;;;;;16.30;3.33;;;;;;;11.38;100.00;101447.09;5068723;28;20149;-75
2022/11/10 02:44:10;;;;;;;10.07;2.85;;;;;;;11.33;100.00;101461.28;5066058;28;20588;-76
2022/11/10 02:46:37;;;;;;;9.10;2.33;;;;;;;11.32;100.00;101459.69;5049565;28;20429;-73
2022/11/10 02:49:06;;;;;;;3.88;1.48;;;;;;;11.28;100.00;101458.88;5050409;28;20049;-73
2022/11/10 02:51:33;;;;;;;4.70;1.40;;;;;;;11.26;100.00;101461.22;5047839;28;20053;-75
2022/11/10 02:53:59;;;;;;;5.63;1.98;;;;;;;11.31;100.00;101455.34;5049832;28;20099;-74
2022/11/10 02:56:26;;;;;;;11.38;3.22;;;;;;;11.25;100.00;101454.91;5064381;28;20102;-74
2022/11/10 02:58:52;;;;;;;12.57;3.47;;;;;;;11.27;100.00;101458.06;5063212;28;20059;-74
2022/11/10 03:01:19;;;;;;;16.73;3.97;;;;;;;11.33;100.00;101461.28;5067278;28;20055;-73
2022/11/10 03:03:45;;;;;;;14.35;2.65;;;;;;;11.30;100.00;101473.94;5067700;28;20052;-74
2022/11/10 03:06:12;;;;;;;17.23;5.18;;;;;;;11.37;100.00;101487.06;5051476;28;20448;-74
2022/11/10 03:08:38;;;;;;;5.95;1.77;;;;;;;11.34;100.00;101488.59;5064370;28;20332;-75
2022/11/10 03:11:10;;;;;;;9.35;3.10;;;;;;;11.33;100.00;101484.25;5062799;28;20074;-75
2022/11/10 03:13:36;;;;;;;11.30;3.00;;;;;;;11.33;100.00;101478.72;5069421;28;20509;-74
2022/11/10 03:16:26;;;;;;;3.92;2.03;;;;;;;11.33;100.00;101464.88;5066885;28;20063;-74
2022/11/10 03:18:52;;;;;;;10.05;2.63;;;;;;;11.32;100.00;101470.78;5067289;28;20052;-74
2022/11/10 03:21:19;;;;;;;27.77;5.50;;;;;;;11.38;100.00;101472.03;5068735;28;20052;-72
2022/11/10 03:23:45;;;;;;;12.13;3.85;;;;;;;11.34;100.00;101480.31;5065652;28;20137;-74
2022/11/10 03:26:13;;;;;;;7.10;1.77;;;;;;;11.22;100.00;101471.50;5051969;28;20418;-73
2022/11/10 03:28:39;;;;;;;14.95;3.20;;;;;;;11.32;100.00;101474.38;5049411;28;20057;-74
2022/11/10 03:31:06;;;;;;;18.25;4.88;;;;;;;11.35;100.00;101486.66;5063357;28;20044;-73
2022/11/10 03:33:32;;;;;;;11.38;2.92;;;;;;;11.35;100.00;101493.00;5065691;28;20052;-73
2022/11/10 03:35:59;;;;;;;15.95;4.45;;;;;;;11.37;100.00;101490.63;5068610;28;20056;-73
2022/11/10 03:38:25;;;;;;;5.35;2.15;;;;;;;11.33;100.00;101500.06;5068823;28;20599;-74
2022/11/10 03:40:53;;;;;;;21.77;4.20;;;;;;;11.39;100.00;101504.91;5066579;28;20137;-73
2022/11/10 03:43:39;;;;;;;6.80;3.03;;;;;;;11.33;100.00;101509.19;5066364;28;20052;-74
2022/11/10 03:46:06;;;;;;;7.22;1.95;;;;;;;11.31;100.00;101510.75;5067895;28;20048;-74
2022/11/10 03:48:33;;;;;;;5.90;2.17;;;;;;;11.30;100.00;101515.50;5066385;28;20779;-74
2022/11/10 03:51:00;;;;;;;21.80;5.20;;;;;;;11.39;100.00;101517.94;5067433;28;20044;-73
2022/11/10 03:53:26;;;;;;;13.27;3.83;;;;;;;11.41;100.00;101521.16;5053624;28;20049;-73
2022/11/10 03:55:53;;;;;;;9.82;2.83;;;;;;;11.27;100.00;101537.66;5048780;28;20049;-74
2022/11/10 03:58:25;;;;;;;16.10;3.25;;;;;;;11.37;100.00;101546.03;5059871;28;20060;-73
2022/11/10 04:00:53;;;;;;;8.07;2.15;;;;;;;11.34;100.00;101540.47;5059695;28;20048;-73
2022/11/10 04:03:20;;;;;;;5.75;2.33;;;;;;;11.34;100.00;101540.47;5064110;28;20428;-73
2022/11/10 04:16:51;;;;;;;5.78;1.55;;;;;;;11.31;100.00;101569.72;5048746;28;20064;-73
2022/11/10 04:19:18;;;;;;;6.22;1.42;;;;;;;11.27;100.00;101573.66;5048293;28;20057;-74
2022/11/10 04:21:45;;;;;;;7.72;2.38;;;;;;;11.27;100.00;101579.19;5047844;28;20515;-74
2022/11/10 04:24:11;;;;;;;9.35;2.45;;;;;;;11.28;100.00;101562.19;5064148;28;20044;-73
2022/11/10 04:26:39;;;;;;;8.32;2.20;;;;;;;11.24;100.00;101574.41;5066723;28;20451;-73
2022/11/10 04:29:17;;;;;;;12.32;2.38;;;;;;;11.24;100.00;101582.72;5067989;28;20083;-73
2022/11/10 04:31:45;;;;;;;6.32;1.75;;;;;;;11.26;100.00;101578.41;5067619;28;20139;-74
2022/11/10 04:34:13;;;;;;;5.47;1.25;;;;;;;11.22;100.00;101579.53;5049177;28;20061;-73
2022/11/10 04:36:43;;;;;;;5.00;1.75;;;;;;;11.20;100.00;101587.44;5052853;28;20040;-73
2022/11/10 04:39:10;;;;;;;12.18;3.22;;;;;;;11.20;100.00;101593.75;5066813;28;20052;-74
2022/11/10 04:41:37;;;;;;;10.20;2.35;;;;;;;11.21;100.00;101598.16;5067177;28;20828;-73
2022/11/10 04:44:06;;;;;;;9.63;2.63;;;;;;;11.18;100.00;101593.38;5068288;28;20509;-73
2022/11/10 04:46:36;;;;;;;9.05;1.90;;;;;;;11.09;100.00;101617.78;5068062;28;20106;-74
2022/11/10 04:49:04;;;;;;;18.35;2.85;;;;;;;11.16;100.00;101603.22;5058736;28;20052;-73
2022/11/10 04:51:35;;;;;;;6.28;3.13;;;;;;;11.24;100.00;101605.66;5047008;28;20052;-73
2022/11/10 04:54:03;;;;;;;9.65;1.85;;;;;;;11.13;100.00;101610.31;5048102;28;20068;-72
2022/11/10 04:56:29;;;;;;;14.90;3.03;;;;;;;11.12;100.00;101616.22;5054354;28;20055;-75
2022/11/10 04:58:56;;;;;;;26.38;4.28;;;;;;;11.16;100.00;101623.41;5065755;28;20067;-73
2022/11/10 05:01:29;;;;;;;4.40;1.83;;;;;;;11.07;100.00;101624.88;5068756;28;20859;-73
2022/11/10 05:03:56;;;;;;;17.38;4.15;;;;;;;11.11;100.00;101620.19;5054312;28;20099;-73
2022/11/10 05:06:23;;;;;;;19.15;3.40;;;;;;;11.09;100.00;101631.63;5063683;28;20059;-73
2022/11/10 05:08:50;;;;;;;16.20;4.28;;;;;;;11.09;100.00;101628.88;5066388;28;20044;-74
2022/11/10 05:11:17;;;;;;;12.80;2.45;;;;;;;11.03;100.00;101629.59;5069621;28;20110;-73
2022/11/10 05:13:45;;;;;;;16.00;3.78;;;;;;;10.97;100.00;101639.41;5067656;28;20052;-73
2022/11/10 05:16:12;;;;;;;11.52;1.92;;;;;;;11.01;100.00;101645.78;5064614;28;20579;-76
2022/11/10 05:18:39;;;;;;;12.55;2.90;;;;;;;10.97;100.00;101636.63;5056193;28;20052;-73
2022/11/10 05:21:05;;;;;;;18.40;4.35;;;;;;;11.09;100.00;101641.91;5071061;28;20044;-73
2022/11/10 05:23:38;;;;;;;14.20;3.65;;;;;;;11.03;100.00;101660.06;5069161;28;20057;-74
2022/11/10 05:26:10;;;;;;;11.00;3.00;;;;;;;11.01;100.00;101659.63;5051834;28;20053;-74
2022/11/10 05:28:37;;;;;;;8.35;1.77;;;;;;;11.01;100.00;101676.25;5053466;28;20053;-74
2022/11/10 05:31:05;;;;;;;3.30;1.50;;;;;;;10.99;100.00;101667.50;5068488;28;20060;-74
2022/11/10 05:33:35;;;;;;;20.15;3.70;;;;;;;11.07;100.00;101667.22;5061475;28;20460;-73
2022/11/10 05:36:02;;;;;;;14.02;3.95;;;;;;;10.98;100.00;101672.25;5050964;28;20591;-74
2022/11/10 05:38:31;;;;;;;1.30;0.73;;;;;;;10.95;100.00;101677.75;5063750;28;20056;-73
2022/11/10 05:40:57;;;;;;;10.20;1.40;;;;;;;10.92;100.00;101687.59;5070488;28;20044;-74
2022/11/10 05:43:24;;;;;;;3.75;1.48;;;;;;;10.95;100.00;101694.34;5068874;28;20066;-73
2022/11/10 05:45:51;;;;;;;10.35;1.45;;;;;;;10.91;100.00;101685.22;5067768;28;20113;-73
2022/11/10 05:48:20;;;;;;;14.70;3.45;;;;;;;10.96;100.00;101698.72;5071302;28;20145;-74
2022/11/10 05:50:47;;;;;;;23.13;4.03;;;;;;;10.92;100.00;101695.09;5066368;28;20378;-73
2022/11/10 05:53:13;;;;;;;5.25;2.38;;;;;;;10.90;100.00;101692.72;5051624;28;20057;-73
2022/11/10 05:55:45;;;;;;;5.03;1.85;;;;;;;10.93;100.00;101683.66;5051010;28;20045;-74
2022/11/10 05:58:12;;;;;;;12.43;3.17;;;;;;;10.92;100.00;101684.84;5053533;28;20493;-73
2022/11/10 06:00:38;;;;;;;8.18;1.73;;;;;;;10.91;100.00;101687.97;5069322;28;20044;-74
2022/11/10 06:03:11;;;;;;;17.15;4.05;;;;;;;10.94;100.00;101695.53;5059982;28;20053;-74
2022/11/10 06:05:38;;;;;;;21.67;3.55;;;;;;;10.85;100.00;101690.28;5051560;28;20048;-73
2022/11/10 06:08:05;;;;;;;11.80;3.38;;;;;;;10.80;100.00;101693.38;5063735;28;20040;-73
2022/11/10 06:10:33;;;;;;;7.95;1.33;;;;;;;10.86;100.00;101696.63;5068710;28;20059;-73
2022/11/10 06:13:02;;;;;;;15.88;3.33;;;;;;;10.84;100.00;101697.00;5066126;28;20045;-74
2022/11/10 06:15:29;;;;;;;5.07;1.15;;;;;;;10.81;100.00;101696.94;5050520;28;20056;-74
2022/11/10 06:17:56;;;;;;;1.95;1.05;;;;;;;10.79;100.00;101699.28;5050789;28;20049;-72
2022/11/10 06:20:23;;;;;;;17.50;2.45;;;;;;;10.80;100.00;101701.69;5060782;28;20045;-73
2022/11/10 06:23:09;;;;;;;11.98;2.80;;;;;;;10.85;100.00;101703.31;5069647;28;20049;-73
2022/11/10 06:25:36;;;;;;;16.17;3.20;;;;;;;10.81;100.00;101716.31;5065395;28;20051;-73
2022/11/10 06:28:04;;;;;;;12.80;2.78;;;;;;;10.77;100.00;101732.91;5060174;28;20049;-74
2022/11/10 06:30:33;;;;;;;12.23;2.85;;;;;;;10.81;100.00;101739.28;5053647;28;20040;-74
2022/11/10 06:33:00;;;;;;;5.57;1.45;;;;;;;10.75;100.00;101748.28;5069794;28;20401;-74
2022/11/10 06:35:28;;;;;;;19.13;2.97;;;;;;;10.83;100.00;101742.47;5070602;28;20492;-74
2022/11/10 06:38:05;;;;;;;8.27;1.92;;;;;;;10.77;100.00;101745.94;5051873;28;20051;-73
2022/11/10 06:40:32;;;;;;;14.52;2.85;;;;;;;10.74;100.00;101747.50;5066945;28;20052;-73
2022/11/10 06:42:59;;;;;;;15.25;3.20;;;;;;;10.70;100.00;101756.91;5063017;28;20072;-74
2022/11/10 06:45:27;;;;;;;16.70;3.97;;;;;;;10.79;100.00;101768.50;5067827;28;20151;-74
2022/11/10 06:48:11;;;;;;;10.75;1.67;;;;;;;10.76;100.00;101766.50;5070289;28;20053;-72
2022/11/10 06:50:37;;;;;;;22.77;3.22;;;;;;;10.76;100.00;101777.56;5067040;28;20053;-73
2022/11/10 06:53:04;;;;;;;23.10;3.50;;;;;;;10.76;100.00;101785.88;5069949;28;20049;-73
2022/11/10 06:55:31;;;;;;;13.95;3.08;;;;;;;10.76;100.00;101777.56;5067037;28;20079;-73
2022/11/10 06:57:57;;;;;;;14.30;2.33;;;;;;;10.74;100.00;101779.91;5062598;28;20048;-73
2022/11/10 07:00:25;;;;;;;28.10;4.20;;;;;;;10.78;100.00;101781.56;5063321;28;20060;-73
2022/11/10 07:03:03;;;;;;;11.45;1.55;;;;;;;10.72;100.00;101787.75;5050629;28;20041;-74
2022/11/10 07:05:31;;;;;;;16.70;3.05;;;;;;;10.80;100.00;101795.03;5057432;28;20071;-73
2022/11/10 07:08:03;;;;;;;12.90;3.00;;;;;;;10.79;100.00;101804.47;5064114;28;20048;-74
2022/11/10 07:10:30;;;;;;;11.70;3.25;;;;;;;10.78;100.00;101812.00;5068975;28;20421;-74
2022/11/10 07:12:58;;;;;;;5.32;1.85;;;;;;;10.80;100.00;101817.19;5061006;28;20048;-73
2022/11/10 07:15:25;;;;;;;7.15;2.65;;;;;;;10.84;100.00;101815.25;5069280;28;20059;-73
2022/11/10 07:17:51;;;;;;;19.92;3.45;;;;;;;10.85;100.00;101820.41;5062175;28;20045;-72
2022/11/10 07:20:18;;;;;;;12.20;3.30;;;;;;;10.88;100.00;101824.41;5068975;28;20049;-74
2022/11/10 07:22:45;;;;;;;17.63;3.80;;;;;;;10.93;100.00;101824.09;5063310;28;20059;-73
2022/11/10 07:25:11;;;;;;;3.60;1.50;;;;;;;10.85;100.00;101822.38;5049010;28;20498;-71
2022/11/10 07:27:38;;;;;;;5.82;1.50;;;;;;;10.89;100.00;101837.06;5059561;28;20051;-74
2022/11/10 07:30:05;;;;;;;14.05;3.88;;;;;;;10.92;100.00;101836.34;5068464;28;20110;-73
2022/11/10 07:32:32;;;;;;;18.25;4.20;;;;;;;11.00;100.00;101838.84;5069049;28;20098;-72
2022/11/10 07:34:58;;;;;;;16.35;2.58;;;;;;;10.95;100.00;101844.72;5064046;28;20049;-75
2022/11/10 07:37:24;;;;;;;27.55;3.55;;;;;;;11.04;100.00;101839.72;5067260;28;20067;-73
2022/11/10 07:39:51;;;;;;;10.52;2.45;;;;;;;11.02;100.00;101844.81;5048189;28;20049;-74
2022/11/10 07:42:17;;;;;;;9.57;2.63;;;;;;;11.09;100.00;101844.91;5065668;28;20571;-74
2022/11/10 07:44:44;;;;;;;12.98;3.00;;;;;;;11.14;100.00;101852.09;5067587;28;20087;-73
2022/11/10 07:47:10;;;;;;;8.10;1.85;;;;;;;11.14;100.00;101850.13;5069020;28;20057;-73
2022/11/10 07:49:37;;;;;;;16.25;4.78;;;;;;;11.20;100.00;101862.47;5067838;28;20064;-75
2022/11/10 07:52:06;;;;;;;5.35;1.70;;;;;;;11.14;100.00;101855.66;5064956;28;20053;-73
2022/11/10 07:54:35;;;;;;;3.60;2.08;;;;;;;11.27;100.00;101868.13;5066899;28;20056;-74
2022/11/10 07:57:01;;;;;;;12.13;2.33;;;;;;;11.32;100.00;101873.34;5046692;28;20053;-73
2022/11/10 07:59:28;;;;;;;19.80;4.18;;;;;;;11.42;100.00;101880.22;5063377;28;20052;-75
2022/11/10 08:01:54;;;;;;;17.55;3.60;;;;;;;11.44;100.00;101869.56;5056812;28;20481;-71
2022/11/10 08:04:21;;;;;;;8.55;2.47;;;;;;;11.50;100.00;101881.88;5061262;28;20501;-69
2022/11/10 08:06:47;;;;;;;5.85;2.10;;;;;;;11.49;100.00;101880.31;5057862;28;20170;-73
2022/11/10 08:09:14;;;;;;;11.32;2.85;;;;;;;11.51;100.00;101883.50;5060743;28;20060;-71
2022/11/10 08:11:41;;;;;;;9.10;2.50;;;;;;;11.59;100.00;101882.41;5063271;28;20387;-70
2022/11/10 08:14:07;;;;;;;7.72;1.75;;;;;;;11.64;100.00;101902.31;5067543;28;20054;-72
2022/11/10 08:16:33;;;;;;;11.15;3.03;;;;;;;11.72;100.00;101909.56;5056719;28;20065;-71
2022/11/10 08:19:00;;;;;;;25.88;5.35;;;;;;;11.77;100.00;101912.00;5048607;28;20136;-69
2022/11/10 08:21:26;;;;;;;7.68;2.25;;;;;;;11.80;100.00;101899.34;5045308;28;20053;-71
2022/11/10 08:23:53;;;;;;;18.25;3.75;;;;;;;11.95;100.00;101910.25;5052359;28;20061;-71
2022/11/10 08:26:20;;;;;;;6.13;1.70;;;;;;;11.95;100.00;101910.25;5063982;28;20052;-69
2022/11/10 08:28:47;;;;;;;10.98;2.33;;;;;;;12.00;100.00;101918.25;5067414;28;20052;-71
2022/11/10 08:31:13;;;;;;;5.85;2.33;;;;;;;12.09;100.00;101915.19;5048939;28;20052;-71
2022/11/10 08:33:39;;;;;;;13.20;3.38;;;;;;;12.03;100.00;101914.72;5055919;28;20053;-70
2022/11/10 08:36:07;;;;;;;11.95;2.95;;;;;;;12.21;100.00;101924.03;5072447;28;20058;-73
2022/11/10 08:38:33;;;;;;;17.13;3.20;;;;;;;12.14;100.00;101923.97;5075554;28;20059;-72
2022/11/10 08:41:00;;;;;;;11.77;1.98;;;;;;;12.27;100.00;101927.28;5066307;28;20524;-73
2022/11/10 08:43:27;;;;;;;13.57;2.72;;;;;;;12.33;100.00;101931.31;5067119;28;20757;-72
2022/11/10 08:45:55;;;;;;;6.72;1.58;;;;;;;12.41;100.00;101938.53;5067293;28;20060;-71
2022/11/10 08:48:22;;;;;;;9.55;2.53;;;;;;;12.48;100.00;101931.06;5067813;28;20055;-72
2022/11/10 08:50:50;;;;;;;5.38;2.03;;;;;;;12.47;100.00;101931.44;5063622;28;20048;-72
2022/11/10 08:53:19;;;;;;;14.45;2.25;;;;;;;12.67;100.00;101941.19;5054643;28;20045;-72
2022/11/10 08:55:47;;;;;;;6.57;1.38;;;;;;;12.68;100.00;101935.25;5061079;28;20195;-71
2022/11/10 08:58:15;;;;;;;5.45;1.88;;;;;;;12.74;100.00;101953.16;5067993;28;20056;-72
2022/11/10 09:00:42;;;;;;;15.18;2.25;;;;;;;12.88;100.00;101958.84;5057427;28;20044;-72
2022/11/10 09:03:20;;;;;;;5.68;1.13;;;;;;;12.95;100.00;101958.09;5062138;28;20149;-72
2022/11/10 09:05:49;;;;;;;13.63;3.22;;;;;;;12.88;100.00;101960.81;5066260;28;20060;-72
2022/11/10 09:08:22;;;;;;;7.57;1.77;;;;;;;12.98;100.00;101955.41;5067649;28;20053;-72
2022/11/10 09:10:49;;;;;;;21.90;4.03;;;;;;;12.99;100.00;101954.22;5050757;28;20053;-72
2022/11/10 09:13:20;;;;;;;10.35;2.75;;;;;;;13.17;100.00;101948.00;5058580;28;20525;-73
2022/11/10 09:15:55;;;;;;;10.93;2.45;;;;;;;13.16;100.00;101961.09;5068047;28;20052;-73
2022/11/10 09:18:21;;;;;;;12.95;3.45;;;;;;;13.23;100.00;101963.91;5065353;28;20055;-72
2022/11/10 09:20:48;;;;;;;21.08;3.30;;;;;;;13.45;100.00;101957.34;5061442;28;20060;-71
2022/11/10 09:23:17;;;;;;;19.58;3.53;;;;;;;13.68;100.00;101941.22;5067156;28;20048;-71
2022/11/10 09:25:49;;;;;;;12.93;2.45;;;;;;;13.58;100.00;101949.47;5060846;28;20402;-72
2022/11/10 09:28:16;;;;;;;4.30;1.77;;;;;;;13.53;100.00;101956.19;5050554;28;20118;-71
2022/11/10 09:30:47;;;;;;;13.30;2.35;;;;;;;13.63;100.00;101980.50;5061478;28;20566;-72
2022/11/10 09:33:14;;;;;;;7.28;2.33;;;;;;;13.58;100.00;101975.31;5048856;28;20053;-71
2022/11/10 09:35:41;;;;;;;9.93;2.40;;;;;;;13.68;100.00;101982.94;5060708;28;20091;-72
2022/11/10 09:38:08;;;;;;;8.85;2.55;;;;;;;13.75;100.00;101985.75;5066360;28;20123;-71
2022/11/10 09:40:41;;;;;;;16.27;3.22;;;;;;;13.90;100.00;101976.28;5067163;28;20044;-71
2022/11/10 09:43:15;;;;;;;12.70;2.42;;;;;;;13.97;100.00;101990.22;5059743;28;20041;-72
2022/11/10 09:45:45;;;;;;;17.77;2.78;;;;;;;14.10;100.00;101991.50;5067947;28;20044;-71
2022/11/10 09:48:30;;;;;;;5.68;1.60;;;;;;;14.09;100.00;102000.22;5067854;28;20603;-71
2022/11/10 09:51:11;;;;;;;13.95;2.83;;;;;;;14.08;100.00;101993.09;5068847;28;20052;-71
2022/11/10 09:53:47;;;;;;;13.15;2.90;;;;;;;14.08;100.00;102002.25;5071033;28;20051;-71
2022/11/10 09:56:20;;;;;;;21.10;2.92;;;;;;;14.08;100.00;102004.22;5067009;28;20052;-71
2022/11/10 09:58:47;;;;;;;5.05;2.42;;;;;;;14.38;100.00;102002.78;5070173;28;20523;-72
2022/11/10 10:01:37;;;;;;;13.20;2.97;;;;;;;14.33;100.00;102003.16;5069378;28;20053;-72
2022/11/10 10:04:28;;;;;;;15.60;3.08;;;;;;;14.48;100.00;102007.59;5069642;28;20459;-72
2022/11/10 10:07:12;;;;;;;10.43;2.67;;;;;;;14.42;100.00;102025.88;5058591;28;20052;-73
2022/11/10 10:10:01;;;;;;;7.35;1.77;;;;;;;14.61;100.00;102027.50;5061414;28;20106;-69
2022/11/10 10:13:01;;;;;;;10.20;2.60;;;;;;;14.83;100.00;102015.25;5064939;28;20052;-72
2022/11/10 10:15:43;;;;;;;13.25;2.78;;;;;;;14.97;100.00;102018.06;5065691;28;20056;-72
2022/11/10 10:18:42;;;;;;;8.27;2.13;;;;;;;14.93;100.00;102014.47;5056103;28;20045;-72
2022/11/10 10:21:26;;;;;;;14.70;2.15;;;;;;;15.03;100.00;102022.84;5060125;28;20079;-73
2022/11/10 10:23:54;;;;;;;10.18;2.30;;;;;;;15.23;100.00;102026.84;5070122;28;20568;-73
2022/11/10 10:26:48;;;;;;;12.15;2.72;;;;;;;15.16;100.00;102035.19;5063718;28;20049;-73
2022/11/10 10:29:22;;;;;;;15.02;2.78;;;;;;;15.27;100.00;102032.44;5054159;28;20056;-73
2022/11/10 10:31:52;;;;;;;16.50;3.38;;;;;;;15.69;100.00;102021.28;5060455;28;20057;-73
2022/11/10 10:34:29;;;;;;;12.90;2.67;;;;;;;15.64;100.00;102006.94;5069178;28;20056;-70
2022/11/10 10:36:55;;;;;;;16.77;4.53;;;;;;;15.97;100.00;102021.22;5069362;28;20052;-70
2022/11/10 10:39:29;;;;;;;8.80;1.77;;;;;;;16.28;100.00;102013.94;5061734;28;20056;-72
2022/11/10 10:41:56;;;;;;;22.05;9.18;;;;;;;16.30;100.00;102028.31;5055642;28;20425;-73
2022/11/10 10:44:23;;;;;;;15.70;3.95;;;;;;;16.48;100.00;102010.31;5049740;28;20057;-73
2022/11/10 10:46:50;;;;;;;10.48;2.60;;;;;;;16.42;100.00;102011.09;5061861;28;20428;-72
2022/11/10 10:49:25;;;;;;;9.30;1.83;;;;;;;16.96;100.00;102008.41;5069030;28;20048;-72
2022/11/10 10:52:12;;;;;;;11.45;2.63;;;;;;;17.20;100.00;102024.22;5064692;28;20048;-70
2022/11/10 10:54:39;;;;;;;20.30;2.22;;;;;;;17.24;100.00;102032.56;5056809;28;20688;-72
2022/11/10 10:57:20;;;;;;;25.38;2.03;;;;;;;17.40;100.00;102027.25;5068194;28;20056;-70
2022/11/10 10:59:46;;;;;;;14.18;2.85;;;;;;;17.84;100.00;102019.66;5061230;28;20045;-72
2022/11/10 11:02:28;;;;;;;10.38;2.63;;;;;;;17.73;97.42;102048.97;5068898;28;20048;-69
2022/11/10 11:05:13;;;;;;;15.43;2.85;;;;;;;17.70;97.96;102042.22;5051707;28;20061;-72
2022/11/10 11:07:40;;;;;;;10.70;1.77;;;;;;;17.81;97.07;102042.09;5059117;28;20072;-72
2022/11/10 11:10:32;;;;;;;3.22;1.40;;;;;;;18.56;91.70;102035.25;5051367;28;20103;-72
2022/11/10 11:13:31;;;;;;;11.00;1.90;;;;;;;19.22;82.24;102050.34;5060534;28;20040;-72
2022/11/10 11:16:00;;;;;;;8.20;1.40;;;;;;;19.94;76.94;102055.13;5039402;28;20049;-72
2022/11/10 11:18:28;;;;;;;11.88;2.08;;;;;;;20.65;74.36;102045.31;5061192;28;20051;-72
2022/11/10 11:20:58;;;;;;;16.13;2.80;;;;;;;21.46;70.67;102049.88;5048671;28;20052;-71
2022/11/10 11:23:55;;;;;;;19.10;3.08;;;;;;;22.18;66.41;102062.47;5060152;28;20049;-73
2022/11/10 11:26:31;;;;;;;11.75;2.58;;;;;;;22.10;62.53;102055.44;5056317;28;20049;-71
2022/11/10 11:29:31;;;;;;;11.70;2.25;;;;;;;21.71;64.06;102056.47;5047840;28;20055;-73
2022/11/10 11:32:16;;;;;;;4.43;1.05;;;;;;;21.32;63.95;102061.47;5048899;28;20071;-73
2022/11/10 11:35:14;;;;;;;13.45;2.47;;;;;;;21.47;64.74;102059.91;5049042;28;20056;-72
2022/11/10 11:38:01;;;;;;;13.95;2.20;;;;;;;21.20;63.40;102065.78;5048279;28;20492;-72